Vremea acum in Blaj - Romania

Vrei sa afli care e starea vremii acum in Alba - Romania? Dorim sa iti furnizam starea vremii pentru Alba - Romania. Starea vremii Alba - Romania pentru astazi.

Vremea acum in Blaj

Temperatura: 20.7 °C

Este: Patchy rain nearby
Se simte ca: 20.7 °C
Innorat: 62 %
Precipitatii: 100 %
Presiune atmosferica: 1015 hPa
Umiditate: 60%
Vizibilitate: 10 km
Vantul bate din NNE cu 4 km/h

Evolutia vremii in Blaj pe ore

Ora: 15:00
Patchy rain nearby
Temperatura: 22.3°C
Sansa de precipitatii: 100%
Ora Descriere Temp Se simte Precipitatii Umiditate Vant
00:00Patchy rain nearby13.8°13.8°100%94%WNW 1.1 KM/H
01:00Ceata13.6°13.6°100%95%SE 1.4 KM/H
02:00Ceata13.5°13.5°88%95%S 1.1 KM/H
03:00Ploi usoare13.3°13.3°100%95%SW 1.4 KM/H
04:00Ploi usoare13.1°13.1°100%95%SW 1.8 KM/H
05:00Ceata12.7°12.7°0%95%SE 1.1 KM/H
06:00Ceata12.1°12.1°0%95%E 1.1 KM/H
07:00Innorat13.5°13.5°0%93%NE 1.1 KM/H
08:00Innorat14.3°14.3°0%90%NNE 1.8 KM/H
09:00Patchy rain nearby15.2°15.2°60%87%NNE 1.8 KM/H
10:00Patchy rain nearby16.7°16.7°65%79%NNW 3.2 KM/H
11:00Patchy rain nearby18°18°65%73%NNW 5 KM/H
12:0019.5°19.6°0%65%NNE 3.6 KM/H
13:00Patchy rain nearby20.7°20.7°64%60%NNE 4 KM/H
14:00Patchy rain nearby21.7°21.7°63%56%N 4 KM/H
15:00Patchy rain nearby22.3°24.6°100%53%NNE 4 KM/H
16:00Patchy rain nearby22.6°24.6°100%50%N 4.7 KM/H
17:00Patchy rain nearby22.2°24.5°100%51%N 8.6 KM/H
18:00Patchy rain nearby21.1°21.1°100%59%N 12.6 KM/H
19:00Ploi usoare18°18°100%74%N 9.4 KM/H
20:00Ploi usoare15.7°15.7°100%78%NNE 8.3 KM/H
21:00Ploi usoare14°14.3°100%85%NNE 5 KM/H
22:00Ploi usoare13.5°13.5°100%87%NNE 1.4 KM/H
23:00Patchy rain nearby13.8°13.8°100%87%S 1.4 KM/H




tutorials